sensor_id;sensor_type;location;lat;lon;timestamp;noise_LAeq;noise_LA_min;noise_LA_max;noise_LA01;noise_LA95
69610;Laerm;56816;52.192;4.474;2023-03-23T00:00:04;51.78;40.59;66.42;;
69610;Laerm;56816;52.192;4.474;2023-03-23T00:00:15;47.71;40.37;64.61;;
69610;Laerm;56816;52.192;4.474;2023-03-23T00:00:26;46.43;41.92;57.38;;
69610;Laerm;56816;52.192;4.474;2023-03-23T00:00:36;56.61;42.57;70.46;;
69610;Laerm;56816;52.192;4.474;2023-03-23T00:00:47;47.66;40.40;65.00;;
69610;Laerm;56816;52.192;4.474;2023-03-23T00:00:57;48.94;41.36;61.83;;
69610;Laerm;56816;52.192;4.474;2023-03-23T00:01:09;65.36;41.59;76.42;;
69610;Laerm;56816;52.192;4.474;2023-03-23T00:01:29;52.84;41.40;71.93;;
69610;Laerm;56816;52.192;4.474;2023-03-23T00:01:47;75.08;41.55;90.86;;
69610;Laerm;56816;52.192;4.474;2023-03-23T00:01:59;79.33;45.61;96.74;;
69610;Laerm;56816;52.192;4.474;2023-03-23T00:02:09;60.73;45.77;71.68;;
69610;Laerm;56816;52.192;4.474;2023-03-23T00:02:26;60.26;47.73;69.11;;
69610;Laerm;56816;52.192;4.474;2023-03-23T00:02:37;60.52;46.14;71.45;;
69610;Laerm;56816;52.192;4.474;2023-03-23T00:02:48;51.42;41.42;63.26;;
69610;Laerm;56816;52.192;4.474;2023-03-23T00:02:58;59.94;42.61;72.90;;
69610;Laerm;56816;52.192;4.474;2023-03-23T00:03:08;63.16;43.61;76.05;;
69610;Laerm;56816;52.192;4.474;2023-03-23T00:03:19;51.12;40.79;62.62;;
69610;Laerm;56816;52.192;4.474;2023-03-23T00:03:31;46.55;42.27;55.71;;
69610;Laerm;56816;52.192;4.474;2023-03-23T00:03:44;46.65;41.30;57.63;;
69610;Laerm;56816;52.192;4.474;2023-03-23T00:03:54;48.78;42.39;63.77;;
69610;Laerm;56816;52.192;4.474;2023-03-23T00:04:07;53.83;41.63;65.90;;
69610;Laerm;56816;52.192;4.474;2023-03-23T00:04:18;62.09;44.98;79.46;;
69610;Laerm;56816;52.192;4.474;2023-03-23T00:04:28;56.15;42.55;68.08;;
69610;Laerm;56816;52.192;4.474;2023-03-23T00:04:39;56.06;41.05;68.11;;
69610;Laerm;56816;52.192;4.474;2023-03-23T00:04:49;63.39;42.92;75.69;;
69610;Laerm;56816;52.192;4.474;2023-03-23T00:05:01;63.53;41.38;74.16;;
69610;Laerm;56816;52.192;4.474;2023-03-23T00:05:13;49.02;40.51;61.35;;
69610;Laerm;56816;52.192;4.474;2023-03-23T01:17:19;48.42;39.24;69.35;;
69610;Laerm;56816;52.192;4.474;2023-03-23T01:17:30;57.93;39.65;70.46;;
69610;Laerm;56816;52.192;4.474;2023-03-23T01:17:41;52.68;40.85;62.66;;
69610;Laerm;56816;52.192;4.474;2023-03-23T01:17:52;47.33;40.11;57.23;;
69610;Laerm;56816;52.192;4.474;2023-03-23T01:18:02;56.69;39.97;67.98;;
69610;Laerm;56816;52.192;4.474;2023-03-23T01:18:12;44.62;38.07;55.52;;
69610;Laerm;56816;52.192;4.474;2023-03-23T01:18:23;40.81;38.05;43.43;;
69610;Laerm;56816;52.192;4.474;2023-03-23T01:18:33;45.19;38.86;57.14;;
69610;Laerm;56816;52.192;4.474;2023-03-23T01:18:43;52.54;38.18;65.66;;
69610;Laerm;56816;52.192;4.474;2023-03-23T01:18:53;46.96;38.92;60.58;;
69610;Laerm;56816;52.192;4.474;2023-03-23T01:19:04;67.38;40.27;78.92;;
69610;Laerm;56816;52.192;4.474;2023-03-23T01:19:14;69.23;40.82;85.23;;
69610;Laerm;56816;52.192;4.474;2023-03-23T01:19:25;55.53;38.15;69.54;;
69610;Laerm;56816;52.192;4.474;2023-03-23T01:19:35;51.09;38.85;66.38;;
69610;Laerm;56816;52.192;4.474;2023-03-23T01:19:47;45.47;38.67;54.94;;
69610;Laerm;56816;52.192;4.474;2023-03-23T01:19:57;41.16;38.03;55.92;;
69610;Laerm;56816;52.192;4.474;2023-03-23T01:20:08;40.07;37.70;46.37;;
69610;Laerm;56816;52.192;4.474;2023-03-23T01:20:19;44.66;39.40;59.13;;
69610;Laerm;56816;52.192;4.474;2023-03-23T01:20:30;42.01;39.39;45.47;;
69610;Laerm;56816;52.192;4.474;2023-03-23T01:20:41;56.97;42.45;71.54;;
69610;Laerm;56816;52.192;4.474;2023-03-23T01:20:52;54.05;41.94;68.58;;
69610;Laerm;56816;52.192;4.474;2023-03-23T01:21:03;54.26;42.58;61.17;;
69610;Laerm;56816;52.192;4.474;2023-03-23T01:21:15;52.04;43.10;64.59;;
69610;Laerm;56816;52.192;4.474;2023-03-23T01:21:26;54.90;40.75;67.33;;
69610;Laerm;56816;52.192;4.474;2023-03-23T01:21:36;59.73;43.99;71.89;;
69610;Laerm;56816;52.192;4.474;2023-03-23T01:21:46;48.51;39.86;60.44;;
69610;Laerm;56816;52.192;4.474;2023-03-23T01:21:57;54.10;38.85;66.55;;
69610;Laerm;56816;52.192;4.474;2023-03-23T01:22:07;40.91;37.53;47.95;;
69610;Laerm;56816;52.192;4.474;2023-03-23T01:22:17;46.43;37.56;54.76;;
69610;Laerm;56816;52.192;4.474;2023-03-23T01:22:27;50.70;39.35;62.58;;
69610;Laerm;56816;52.192;4.474;2023-03-23T01:22:38;56.97;38.77;70.90;;
69610;Laerm;56816;52.192;4.474;2023-03-23T01:22:49;46.89;39.05;60.25;;
69610;Laerm;56816;52.192;4.474;2023-03-23T01:23:00;46.84;39.72;60.29;;
69610;Laerm;56816;52.192;4.474;2023-03-23T01:23:10;61.80;40.27;76.78;;
69610;Laerm;56816;52.192;4.474;2023-03-23T01:23:20;48.46;39.58;60.26;;
69610;Laerm;56816;52.192;4.474;2023-03-23T01:23:31;49.11;40.37;58.63;;
69610;Laerm;56816;52.192;4.474;2023-03-23T01:23:42;43.11;39.91;48.01;;
69610;Laerm;56816;52.192;4.474;2023-03-23T01:23:52;55.31;41.40;70.27;;
69610;Laerm;56816;52.192;4.474;2023-03-23T01:24:03;49.53;41.81;65.95;;
69610;Laerm;56816;52.192;4.474;2023-03-23T01:24:13;56.36;41.74;68.58;;
69610;Laerm;56816;52.192;4.474;2023-03-23T01:24:24;55.28;41.03;67.33;;
69610;Laerm;56816;52.192;4.474;2023-03-23T01:24:34;49.68;40.75;63.39;;
69610;Laerm;56816;52.192;4.474;2023-03-23T01:24:45;52.94;41.03;69.42;;
69610;Laerm;56816;52.192;4.474;2023-03-23T01:24:55;46.68;41.61;52.72;;
69610;Laerm;56816;52.192;4.474;2023-03-23T01:25:06;58.30;44.19;71.41;;
69610;Laerm;56816;52.192;4.474;2023-03-23T01:25:16;66.49;42.25;77.94;;
69610;Laerm;56816;52.192;4.474;2023-03-23T01:25:27;51.28;40.32;60.97;;
69610;Laerm;56816;52.192;4.474;2023-03-23T01:25:38;61.33;40.50;74.30;;
69610;Laerm;56816;52.192;4.474;2023-03-23T01:25:48;43.95;40.35;55.09;;
69610;Laerm;56816;52.192;4.474;2023-03-23T01:26:09;41.69;38.88;44.82;;
69610;Laerm;56816;52.192;4.474;2023-03-23T01:26:24;42.52;39.07;52.38;;
69610;Laerm;56816;52.192;4.474;2023-03-23T01:26:34;49.51;40.92;61.11;;
69610;Laerm;56816;52.192;4.474;2023-03-23T01:26:44;48.31;42.50;56.08;;
69610;Laerm;56816;52.192;4.474;2023-03-23T01:26:55;46.99;43.35;55.14;;
69610;Laerm;56816;52.192;4.474;2023-03-23T01:27:05;51.05;43.79;61.34;;
69610;Laerm;56816;52.192;4.474;2023-03-23T01:27:16;52.33;47.97;55.98;;
69610;Laerm;56816;52.192;4.474;2023-03-23T01:27:26;47.56;44.01;52.29;;
69610;Laerm;56816;52.192;4.474;2023-03-23T01:27:38;55.18;42.65;71.23;;
69610;Laerm;56816;52.192;4.474;2023-03-23T01:27:48;46.66;41.40;54.72;;
69610;Laerm;56816;52.192;4.474;2023-03-23T01:27:59;53.29;41.46;66.38;;
69610;Laerm;56816;52.192;4.474;2023-03-23T01:28:09;59.77;43.15;73.06;;
69610;Laerm;56816;52.192;4.474;2023-03-23T01:28:20;49.06;42.55;62.92;;
69610;Laerm;56816;52.192;4.474;2023-03-23T01:28:31;57.25;39.53;68.03;;
69610;Laerm;56816;52.192;4.474;2023-03-23T01:28:41;56.66;43.21;68.71;;
69610;Laerm;56816;52.192;4.474;2023-03-23T01:28:52;54.10;40.89;70.31;;
69610;Laerm;56816;52.192;4.474;2023-03-23T01:29:03;45.19;40.66;50.85;;
69610;Laerm;56816;52.192;4.474;2023-03-23T01:29:13;60.44;41.66;71.45;;
69610;Laerm;56816;52.192;4.474;2023-03-23T01:29:23;52.10;41.76;68.45;;
69610;Laerm;56816;52.192;4.474;2023-03-23T01:29:34;53.90;40.90;65.23;;
69610;Laerm;56816;52.192;4.474;2023-03-23T01:29:44;65.36;42.20;76.60;;
69610;Laerm;56816;52.192;4.474;2023-03-23T01:29:54;42.63;40.10;48.42;;
69610;Laerm;56816;52.192;4.474;2023-03-23T01:30:05;45.26;42.32;52.58;;
69610;Laerm;56816;52.192;4.474;2023-03-23T01:30:16;47.82;42.65;54.08;;
69610;Laerm;56816;52.192;4.474;2023-03-23T01:30:27;46.61;40.25;57.72;;
69610;Laerm;56816;52.192;4.474;2023-03-23T01:30:37;42.88;39.39;47.04;;
69610;Laerm;56816;52.192;4.474;2023-03-23T01:30:47;43.78;39.33;52.58;;
69610;Laerm;56816;52.192;4.474;2023-03-23T01:31:04;40.20;38.35;44.55;;
69610;Laerm;56816;52.192;4.474;2023-03-23T01:31:16;55.11;38.65;70.74;;
69610;Laerm;56816;52.192;4.474;2023-03-23T01:31:27;41.81;38.66;46.47;;
69610;Laerm;56816;52.192;4.474;2023-03-23T01:31:37;40.91;37.74;51.42;;
69610;Laerm;56816;52.192;4.474;2023-03-23T01:31:47;47.11;39.57;55.79;;
69610;Laerm;56816;52.192;4.474;2023-03-23T01:31:58;49.63;39.04;63.65;;
69610;Laerm;56816;52.192;4.474;2023-03-23T01:32:08;66.61;40.87;83.59;;
69610;Laerm;56816;52.192;4.474;2023-03-23T01:32:18;54.37;40.74;70.46;;
69610;Laerm;56816;52.192;4.474;2023-03-23T01:32:28;52.46;38.93;64.31;;
69610;Laerm;56816;52.192;4.474;2023-03-23T01:32:39;51.03;38.07;61.88;;
69610;Laerm;56816;52.192;4.474;2023-03-23T01:32:49;45.77;36.83;56.34;;
69610;Laerm;56816;52.192;4.474;2023-03-23T01:33:00;42.99;37.50;49.23;;
69610;Laerm;56816;52.192;4.474;2023-03-23T01:33:10;43.16;37.47;54.98;;
69610;Laerm;56816;52.192;4.474;2023-03-23T01:33:20;43.10;39.01;50.85;;
69610;Laerm;56816;52.192;4.474;2023-03-23T01:33:31;49.40;40.76;62.42;;
69610;Laerm;56816;52.192;4.474;2023-03-23T01:33:41;54.29;40.67;65.76;;
69610;Laerm;56816;52.192;4.474;2023-03-23T01:33:52;41.65;38.05;50.62;;
69610;Laerm;56816;52.192;4.474;2023-03-23T01:34:03;41.06;38.54;46.47;;
69610;Laerm;56816;52.192;4.474;2023-03-23T01:34:14;53.33;39.28;68.37;;
69610;Laerm;56816;52.192;4.474;2023-03-23T01:34:24;57.21;42.29;69.67;;
69610;Laerm;56816;52.192;4.474;2023-03-23T01:34:34;51.61;40.65;66.12;;
69610;Laerm;56816;52.192;4.474;2023-03-23T01:34:46;54.36;43.26;67.93;;
69610;Laerm;56816;52.192;4.474;2023-03-23T01:34:56;51.21;41.85;71.42;;
69610;Laerm;56816;52.192;4.474;2023-03-23T01:35:06;49.28;40.36;62.90;;
69610;Laerm;56816;52.192;4.474;2023-03-23T01:35:17;56.48;39.32;68.00;;
69610;Laerm;56816;52.192;4.474;2023-03-23T01:35:28;50.34;39.36;60.45;;
69610;Laerm;56816;52.192;4.474;2023-03-23T01:35:38;44.70;38.62;52.62;;
69610;Laerm;56816;52.192;4.474;2023-03-23T01:35:48;48.03;42.21;62.08;;
69610;Laerm;56816;52.192;4.474;2023-03-23T01:36:02;45.42;40.75;57.11;;
69610;Laerm;56816;52.192;4.474;2023-03-23T01:36:13;54.26;41.83;68.63;;
69610;Laerm;56816;52.192;4.474;2023-03-23T01:36:26;49.52;40.62;63.31;;
69610;Laerm;56816;52.192;4.474;2023-03-23T01:36:38;41.09;38.19;44.44;;
69610;Laerm;56816;52.192;4.474;2023-03-23T01:36:48;53.49;39.24;74.90;;
69610;Laerm;56816;52.192;4.474;2023-03-23T01:36:59;52.52;38.82;70.18;;
69610;Laerm;56816;52.192;4.474;2023-03-23T01:37:09;58.54;39.77;71.76;;
69610;Laerm;56816;52.192;4.474;2023-03-23T01:37:19;43.66;39.50;51.46;;
69610;Laerm;56816;52.192;4.474;2023-03-23T01:37:30;42.24;39.13;50.51;;
69610;Laerm;56816;52.192;4.474;2023-03-23T01:37:41;44.66;38.59;54.61;;
69610;Laerm;56816;52.192;4.474;2023-03-23T01:37:51;46.47;41.47;54.23;;
69610;Laerm;56816;52.192;4.474;2023-03-23T01:38:02;44.48;39.78;53.69;;
69610;Laerm;56816;52.192;4.474;2023-03-23T01:38:12;53.86;40.01;65.75;;
69610;Laerm;56816;52.192;4.474;2023-03-23T01:38:22;43.34;38.56;54.41;;
69610;Laerm;56816;52.192;4.474;2023-03-23T01:38:33;41.25;38.90;45.23;;
69610;Laerm;56816;52.192;4.474;2023-03-23T01:38:45;58.73;39.02;70.38;;
69610;Laerm;56816;52.192;4.474;2023-03-23T01:38:55;71.67;43.66;82.48;;
69610;Laerm;56816;52.192;4.474;2023-03-23T01:39:07;53.88;39.69;71.55;;
69610;Laerm;56816;52.192;4.474;2023-03-23T01:39:18;59.75;39.62;70.91;;
69610;Laerm;56816;52.192;4.474;2023-03-23T01:39:28;54.64;38.72;67.93;;
69610;Laerm;56816;52.192;4.474;2023-03-23T01:39:38;44.17;38.98;54.91;;
69610;Laerm;56816;52.192;4.474;2023-03-23T01:39:49;57.80;38.62;67.85;;
69610;Laerm;56816;52.192;4.474;2023-03-23T01:39:59;46.61;39.01;56.38;;
69610;Laerm;56816;52.192;4.474;2023-03-23T01:40:10;46.58;41.09;55.06;;
69610;Laerm;56816;52.192;4.474;2023-03-23T01:40:21;44.80;41.27;48.94;;
69610;Laerm;56816;52.192;4.474;2023-03-23T01:40:31;43.85;40.72;47.61;;
69610;Laerm;56816;52.192;4.474;2023-03-23T01:40:42;44.21;39.52;53.99;;
69610;Laerm;56816;52.192;4.474;2023-03-23T01:40:53;50.92;40.19;61.52;;
69610;Laerm;56816;52.192;4.474;2023-03-23T01:41:03;43.57;39.84;54.35;;
69610;Laerm;56816;52.192;4.474;2023-03-23T01:41:14;59.02;41.19;71.68;;
69610;Laerm;56816;52.192;4.474;2023-03-23T01:41:25;48.70;39.68;59.79;;
69610;Laerm;56816;52.192;4.474;2023-03-23T01:41:35;46.55;40.15;59.04;;
69610;Laerm;56816;52.192;4.474;2023-03-23T01:41:45;55.25;40.60;69.02;;
69610;Laerm;56816;52.192;4.474;2023-03-23T01:41:56;50.29;40.44;62.85;;
69610;Laerm;56816;52.192;4.474;2023-03-23T01:42:08;59.23;40.22;76.60;;
69610;Laerm;56816;52.192;4.474;2023-03-23T01:42:20;47.44;39.81;61.08;;
69610;Laerm;56816;52.192;4.474;2023-03-23T01:42:32;44.82;37.10;61.14;;
69610;Laerm;56816;52.192;4.474;2023-03-23T01:42:43;41.29;37.58;48.59;;
69610;Laerm;56816;52.192;4.474;2023-03-23T01:42:54;44.40;37.63;53.38;;
69610;Laerm;56816;52.192;4.474;2023-03-23T01:43:07;44.15;38.02;57.06;;
69610;Laerm;56816;52.192;4.474;2023-03-23T01:43:18;49.61;39.29;65.93;;
69610;Laerm;56816;52.192;4.474;2023-03-23T01:43:28;57.25;42.00;66.75;;
69610;Laerm;56816;52.192;4.474;2023-03-23T01:45:11;41.41;38.36;47.32;;
69610;Laerm;56816;52.192;4.474;2023-03-23T01:45:29;64.52;42.11;82.68;;
69610;Laerm;56816;52.192;4.474;2023-03-23T01:45:39;56.58;40.27;74.98;;
69610;Laerm;56816;52.192;4.474;2023-03-23T01:45:50;56.13;41.64;68.61;;
69610;Laerm;56816;52.192;4.474;2023-03-23T01:46:00;55.54;39.56;69.57;;
69610;Laerm;56816;52.192;4.474;2023-03-23T01:46:10;50.09;37.87;66.12;;
69610;Laerm;56816;52.192;4.474;2023-03-23T01:46:21;54.36;39.66;66.75;;
69610;Laerm;56816;52.192;4.474;2023-03-23T01:46:34;46.16;39.93;57.41;;
69610;Laerm;56816;52.192;4.474;2023-03-23T01:46:45;47.91;38.99;61.87;;
69610;Laerm;56816;52.192;4.474;2023-03-23T01:46:55;46.87;41.28;59.71;;
69610;Laerm;56816;52.192;4.474;2023-03-23T01:47:06;59.64;42.64;74.98;;
69610;Laerm;56816;52.192;4.474;2023-03-23T01:47:16;47.79;43.44;54.93;;
69610;Laerm;56816;52.192;4.474;2023-03-23T01:47:30;48.19;40.03;58.39;;
69610;Laerm;56816;52.192;4.474;2023-03-23T01:47:40;44.40;41.09;50.15;;
69610;Laerm;56816;52.192;4.474;2023-03-23T01:48:11;46.23;43.20;49.45;;
69610;Laerm;56816;52.192;4.474;2023-03-23T01:48:36;50.69;38.97;62.23;;
69610;Laerm;56816;52.192;4.474;2023-03-23T01:48:48;46.51;42.55;52.43;;
69610;Laerm;56816;52.192;4.474;2023-03-23T01:49:06;51.21;42.95;62.97;;
69610;Laerm;56816;52.192;4.474;2023-03-23T01:49:19;54.83;38.54;69.12;;
69610;Laerm;56816;52.192;4.474;2023-03-23T01:49:33;41.76;37.54;53.44;;
69610;Laerm;56816;52.192;4.474;2023-03-23T01:49:45;42.21;37.31;52.95;;
69610;Laerm;56816;52.192;4.474;2023-03-23T01:49:57;41.75;37.62;48.77;;
69610;Laerm;56816;52.192;4.474;2023-03-23T01:50:07;43.44;38.70;50.16;;
69610;Laerm;56816;52.192;4.474;2023-03-23T01:50:18;43.39;40.15;47.83;;
69610;Laerm;56816;52.192;4.474;2023-03-23T01:50:32;45.11;40.84;53.71;;
69610;Laerm;56816;52.192;4.474;2023-03-23T01:51:08;41.86;37.21;51.93;;
69610;Laerm;56816;52.192;4.474;2023-03-23T01:51:19;43.63;38.24;56.59;;
69610;Laerm;56816;52.192;4.474;2023-03-23T01:51:30;49.34;43.53;60.20;;
69610;Laerm;56816;52.192;4.474;2023-03-23T01:51:45;49.95;44.99;59.04;;
69610;Laerm;56816;52.192;4.474;2023-03-23T01:51:59;56.24;38.91;71.59;;
69610;Laerm;56816;52.192;4.474;2023-03-23T01:52:18;56.60;39.85;70.75;;
69610;Laerm;56816;52.192;4.474;2023-03-23T01:52:31;46.53;38.25;63.20;;
69610;Laerm;56816;52.192;4.474;2023-03-23T01:52:43;41.44;37.39;52.19;;
69610;Laerm;56816;52.192;4.474;2023-03-23T01:52:54;48.50;38.79;60.03;;
69610;Laerm;56816;52.192;4.474;2023-03-23T01:53:07;45.65;38.29;59.38;;
69610;Laerm;56816;52.192;4.474;2023-03-23T01:53:18;51.62;38.96;64.17;;
69610;Laerm;56816;52.192;4.474;2023-03-23T01:53:34;46.82;39.01;59.60;;
69610;Laerm;56816;52.192;4.474;2023-03-23T01:53:47;41.10;37.42;50.21;;
69610;Laerm;56816;52.192;4.474;2023-03-23T01:53:59;50.63;39.00;68.35;;
69610;Laerm;56816;52.192;4.474;2023-03-23T01:54:11;49.25;41.67;57.31;;
69610;Laerm;56816;52.192;4.474;2023-03-23T01:54:23;58.83;43.28;72.65;;
69610;Laerm;56816;52.192;4.474;2023-03-23T01:54:35;50.75;45.24;59.33;;
69610;Laerm;56816;52.192;4.474;2023-03-23T01:54:46;48.69;43.88;55.00;;
69610;Laerm;56816;52.192;4.474;2023-03-23T01:54:58;49.77;41.53;60.66;;
69610;Laerm;56816;52.192;4.474;2023-03-23T01:55:09;44.85;40.03;55.86;;
69610;Laerm;56816;52.192;4.474;2023-03-23T01:55:19;46.74;41.20;51.94;;
69610;Laerm;56816;52.192;4.474;2023-03-23T01:55:30;52.36;40.90;66.38;;
69610;Laerm;56816;52.192;4.474;2023-03-23T01:55:41;44.08;40.67;54.27;;
69610;Laerm;56816;52.192;4.474;2023-03-23T01:55:53;48.82;40.46;63.68;;
69610;Laerm;56816;52.192;4.474;2023-03-23T01:56:04;55.31;41.43;66.97;;
69610;Laerm;56816;52.192;4.474;2023-03-23T01:56:17;47.26;41.22;56.61;;
69610;Laerm;56816;52.192;4.474;2023-03-23T01:56:32;44.60;41.84;48.64;;
69610;Laerm;56816;52.192;4.474;2023-03-23T01:56:52;49.58;43.76;64.12;;
69610;Laerm;56816;52.192;4.474;2023-03-23T01:57:05;47.58;42.10;57.28;;
69610;Laerm;56816;52.192;4.474;2023-03-23T01:57:17;48.00;39.35;60.95;;
69610;Laerm;56816;52.192;4.474;2023-03-23T01:57:28;45.06;39.67;54.52;;
69610;Laerm;56816;52.192;4.474;2023-03-23T01:57:39;55.40;39.38;68.24;;
69610;Laerm;56816;52.192;4.474;2023-03-23T01:57:50;56.54;39.04;71.38;;
69610;Laerm;56816;52.192;4.474;2023-03-23T01:58:00;47.00;40.07;59.55;;
69610;Laerm;56816;52.192;4.474;2023-03-23T01:58:11;56.53;41.06;65.94;;
69610;Laerm;56816;52.192;4.474;2023-03-23T01:58:24;60.11;38.31;72.89;;
69610;Laerm;56816;52.192;4.474;2023-03-23T01:58:37;44.33;37.23;57.68;;
69610;Laerm;56816;52.192;4.474;2023-03-23T01:58:48;41.34;38.17;48.69;;
69610;Laerm;56816;52.192;4.474;2023-03-23T01:58:58;49.79;38.19;60.71;;
69610;Laerm;56816;52.192;4.474;2023-03-23T01:59:09;46.38;38.07;61.05;;
69610;Laerm;56816;52.192;4.474;2023-03-23T01:59:20;46.04;39.28;55.13;;
69610;Laerm;56816;52.192;4.474;2023-03-23T01:59:33;46.11;41.56;56.41;;
69610;Laerm;56816;52.192;4.474;2023-03-23T01:59:45;52.07;40.11;63.04;;
69610;Laerm;56816;52.192;4.474;2023-03-23T01:59:58;53.98;40.51;66.74;;
69610;Laerm;56816;52.192;4.474;2023-03-23T02:00:17;63.97;41.21;81.18;;
69610;Laerm;56816;52.192;4.474;2023-03-23T02:00:27;55.34;42.51;67.00;;
69610;Laerm;56816;52.192;4.474;2023-03-23T02:00:38;46.41;40.91;57.71;;
69610;Laerm;56816;52.192;4.474;2023-03-23T02:00:53;52.29;40.40;65.11;;
69610;Laerm;56816;52.192;4.474;2023-03-23T02:01:06;63.11;42.48;80.39;;
69610;Laerm;56816;52.192;4.474;2023-03-23T02:01:17;52.94;40.98;65.72;;
69610;Laerm;56816;52.192;4.474;2023-03-23T02:01:28;52.88;40.32;65.86;;
69610;Laerm;56816;52.192;4.474;2023-03-23T02:01:39;45.02;40.41;53.94;;
69610;Laerm;56816;52.192;4.474;2023-03-23T02:01:55;46.86;42.03;56.92;;
69610;Laerm;56816;52.192;4.474;2023-03-23T02:02:05;51.98;44.40;62.85;;
69610;Laerm;56816;52.192;4.474;2023-03-23T02:02:15;56.40;43.58;68.28;;
69610;Laerm;56816;52.192;4.474;2023-03-23T02:02:26;45.57;41.09;53.80;;
69610;Laerm;56816;52.192;4.474;2023-03-23T02:02:37;56.65;43.57;66.51;;
69610;Laerm;56816;52.192;4.474;2023-03-23T02:02:49;51.37;45.76;60.54;;
69610;Laerm;56816;52.192;4.474;2023-03-23T02:03:00;45.56;41.85;48.36;;
69610;Laerm;56816;52.192;4.474;2023-03-23T02:03:10;47.45;41.90;54.62;;
69610;Laerm;56816;52.192;4.474;2023-03-23T02:03:23;46.12;40.24;53.34;;
69610;Laerm;56816;52.192;4.474;2023-03-23T02:03:34;43.80;40.52;51.62;;
69610;Laerm;56816;52.192;4.474;2023-03-23T02:03:46;44.10;38.83;60.61;;
69610;Laerm;56816;52.192;4.474;2023-03-23T02:03:58;51.85;40.66;62.16;;
69610;Laerm;56816;52.192;4.474;2023-03-23T02:04:08;51.50;40.63;65.21;;
69610;Laerm;56816;52.192;4.474;2023-03-23T02:04:19;53.40;38.35;63.63;;
69610;Laerm;56816;52.192;4.474;2023-03-23T02:04:30;44.33;39.06;52.40;;
69610;Laerm;56816;52.192;4.474;2023-03-23T02:04:41;51.47;38.72;69.65;;
69610;Laerm;56816;52.192;4.474;2023-03-23T02:04:52;46.63;40.55;57.16;;
69610;Laerm;56816;52.192;4.474;2023-03-23T02:05:07;45.26;41.43;59.00;;
69610;Laerm;56816;52.192;4.474;2023-03-23T02:05:24;47.91;42.39;52.53;;
69610;Laerm;56816;52.192;4.474;2023-03-23T02:05:37;53.25;41.80;63.21;;
69610;Laerm;56816;52.192;4.474;2023-03-23T02:05:48;45.84;38.21;60.05;;
69610;Laerm;56816;52.192;4.474;2023-03-23T02:05:59;44.71;36.87;58.52;;
69610;Laerm;56816;52.192;4.474;2023-03-23T02:06:09;43.32;37.89;52.37;;
69610;Laerm;56816;52.192;4.474;2023-03-23T02:06:20;43.03;40.84;46.81;;
69610;Laerm;56816;52.192;4.474;2023-03-23T02:06:30;46.10;42.63;49.62;;
69610;Laerm;56816;52.192;4.474;2023-03-23T02:06:41;43.87;40.05;49.12;;
69610;Laerm;56816;52.192;4.474;2023-03-23T02:06:52;45.50;41.33;51.66;;
69610;Laerm;56816;52.192;4.474;2023-03-23T02:07:03;46.45;40.94;55.81;;
69610;Laerm;56816;52.192;4.474;2023-03-23T02:07:14;53.33;43.03;65.89;;
69610;Laerm;56816;52.192;4.474;2023-03-23T02:07:25;50.48;43.26;58.05;;
69610;Laerm;56816;52.192;4.474;2023-03-23T02:07:35;45.31;41.67;51.86;;
69610;Laerm;56816;52.192;4.474;2023-03-23T02:07:46;43.12;39.60;46.47;;
69610;Laerm;56816;52.192;4.474;2023-03-23T02:07:58;46.93;40.60;56.59;;
69610;Laerm;56816;52.192;4.474;2023-03-23T02:08:13;49.91;40.42;66.89;;
69610;Laerm;56816;52.192;4.474;2023-03-23T02:08:26;47.28;41.56;52.11;;
69610;Laerm;56816;52.192;4.474;2023-03-23T02:08:38;48.54;39.25;61.00;;
69610;Laerm;56816;52.192;4.474;2023-03-23T02:08:49;44.10;39.45;52.49;;
69610;Laerm;56816;52.192;4.474;2023-03-23T02:09:00;49.79;41.60;59.94;;
69610;Laerm;56816;52.192;4.474;2023-03-23T02:09:11;65.54;43.36;80.23;;
69610;Laerm;56816;52.192;4.474;2023-03-23T02:09:26;51.02;41.98;62.09;;
69610;Laerm;56816;52.192;4.474;2023-03-23T02:09:37;67.76;44.54;80.63;;
69610;Laerm;56816;52.192;4.474;2023-03-23T02:09:47;57.85;43.23;70.95;;
69610;Laerm;56816;52.192;4.474;2023-03-23T02:09:59;52.94;41.16;66.90;;
69610;Laerm;56816;52.192;4.474;2023-03-23T02:10:10;59.48;41.77;73.94;;
69610;Laerm;56816;52.192;4.474;2023-03-23T02:10:20;52.64;40.49;65.66;;
69610;Laerm;56816;52.192;4.474;2023-03-23T02:10:31;57.04;40.35;69.15;;
69610;Laerm;56816;52.192;4.474;2023-03-23T02:10:42;42.39;39.78;50.04;;
69610;Laerm;56816;52.192;4.474;2023-03-23T02:10:52;47.21;40.54;57.39;;
69610;Laerm;56816;52.192;4.474;2023-03-23T02:11:11;44.82;41.63;52.68;;
69610;Laerm;56816;52.192;4.474;2023-03-23T02:11:21;44.78;41.82;52.29;;
69610;Laerm;56816;52.192;4.474;2023-03-23T02:11:32;48.14;40.59;56.97;;
69610;Laerm;56816;52.192;4.474;2023-03-23T02:11:43;52.37;42.11;65.41;;
69610;Laerm;56816;52.192;4.474;2023-03-23T02:11:54;54.71;41.55;71.27;;
69610;Laerm;56816;52.192;4.474;2023-03-23T02:12:04;51.97;39.12;65.51;;
69610;Laerm;56816;52.192;4.474;2023-03-23T02:12:15;52.70;38.23;64.19;;
69610;Laerm;56816;52.192;4.474;2023-03-23T02:12:26;48.24;38.24;59.24;;
69610;Laerm;56816;52.192;4.474;2023-03-23T02:12:36;41.82;39.13;51.49;;
69610;Laerm;56816;52.192;4.474;2023-03-23T02:12:46;43.72;40.72;50.29;;
69610;Laerm;56816;52.192;4.474;2023-03-23T02:12:57;50.65;41.19;63.82;;
69610;Laerm;56816;52.192;4.474;2023-03-23T02:13:09;51.90;45.69;61.89;;
69610;Laerm;56816;52.192;4.474;2023-03-23T02:13:19;55.08;49.08;64.56;;
69610;Laerm;56816;52.192;4.474;2023-03-23T02:13:30;54.86;47.52;65.28;;
69610;Laerm;56816;52.192;4.474;2023-03-23T02:13:40;54.55;44.34;66.75;;
69610;Laerm;56816;52.192;4.474;2023-03-23T02:13:51;52.97;44.83;65.17;;
69610;Laerm;56816;52.192;4.474;2023-03-23T02:14:01;56.42;44.50;69.23;;
69610;Laerm;56816;52.192;4.474;2023-03-23T02:14:12;63.12;45.89;74.48;;
69610;Laerm;56816;52.192;4.474;2023-03-23T02:14:24;68.90;46.43;80.73;;
69610;Laerm;56816;52.192;4.474;2023-03-23T02:14:35;61.36;47.36;73.49;;
69610;Laerm;56816;52.192;4.474;2023-03-23T02:14:45;66.05;46.30;81.11;;
69610;Laerm;56816;52.192;4.474;2023-03-23T02:14:56;53.33;44.32;64.68;;
69610;Laerm;56816;52.192;4.474;2023-03-23T02:15:06;62.29;45.17;77.54;;
69610;Laerm;56816;52.192;4.474;2023-03-23T02:15:17;53.57;44.62;60.74;;
69610;Laerm;56816;52.192;4.474;2023-03-23T02:15:30;46.78;41.95;55.37;;
69610;Laerm;56816;52.192;4.474;2023-03-23T02:15:54;48.47;41.41;62.51;;
69610;Laerm;56816;52.192;4.474;2023-03-23T02:16:45;47.02;42.70;56.32;;
69610;Laerm;56816;52.192;4.474;2023-03-23T02:17:14;65.78;41.81;76.40;;
69610;Laerm;56816;52.192;4.474;2023-03-23T02:17:33;51.37;39.37;66.62;;
69610;Laerm;56816;52.192;4.474;2023-03-23T02:20:24;50.81;38.57;64.50;;
69610;Laerm;56816;52.192;4.474;2023-03-23T02:21:20;61.12;42.26;75.45;;
69610;Laerm;56816;52.192;4.474;2023-03-23T02:23:44;49.02;40.09;62.55;;
69610;Laerm;56816;52.192;4.474;2023-03-23T02:26:55;50.33;41.76;65.78;;
69610;Laerm;56816;52.192;4.474;2023-03-23T02:27:11;46.62;42.62;52.58;;
69610;Laerm;56816;52.192;4.474;2023-03-23T02:28:30;47.01;39.10;59.99;;
69610;Laerm;56816;52.192;4.474;2023-03-23T02:28:55;43.83;39.21;52.29;;
69610;Laerm;56816;52.192;4.474;2023-03-23T02:29:29;53.73;39.92;71.75;;
69610;Laerm;56816;52.192;4.474;2023-03-23T02:30:33;55.37;43.53;70.23;;